createdAt,value
2019-01-14T00:00:30.267Z,0.00
2019-01-14T00:01:30.258Z,0.00
2019-01-14T00:02:30.244Z,0.00
2019-01-14T00:03:30.238Z,0.00
2019-01-14T00:04:30.223Z,0.00
2019-01-14T00:05:30.213Z,0.00
2019-01-14T00:06:30.202Z,0.00
2019-01-14T00:07:30.192Z,0.00
2019-01-14T00:08:30.226Z,0.00
2019-01-14T00:09:31.266Z,0.00
2019-01-14T00:10:30.163Z,0.00
2019-01-14T00:11:30.153Z,0.00
2019-01-14T00:12:30.137Z,0.00
2019-01-14T00:13:30.125Z,0.00
2019-01-14T00:14:30.112Z,0.00
2019-01-14T00:15:30.104Z,0.00
2019-01-14T00:16:30.091Z,0.00
2019-01-14T00:17:30.082Z,0.00
2019-01-14T00:18:30.070Z,0.00
2019-01-14T00:19:30.059Z,0.00
2019-01-14T00:20:30.048Z,0.00
2019-01-14T00:21:30.038Z,0.00
2019-01-14T00:22:30.024Z,0.00
2019-01-14T00:23:30.015Z,0.00
2019-01-14T00:24:30.004Z,0.00
2019-01-14T00:25:29.994Z,0.00
2019-01-14T00:26:29.982Z,0.00
2019-01-14T00:27:29.970Z,0.00
2019-01-14T00:28:29.960Z,0.00
2019-01-14T00:29:29.949Z,0.00
2019-01-14T00:33:25.817Z,0.00
2019-01-14T00:35:52.749Z,0.00
2019-01-14T00:36:52.735Z,0.00
2019-01-14T00:38:34.287Z,0.00
2019-01-14T00:39:34.262Z,0.00
2019-01-14T00:41:16.296Z,0.00
2019-01-14T00:42:16.280Z,0.00
2019-01-14T00:43:16.275Z,0.00
2019-01-14T00:44:16.260Z,0.00
2019-01-14T00:45:16.249Z,0.00
2019-01-14T00:46:16.237Z,0.00
2019-01-14T00:47:16.224Z,0.00
2019-01-14T00:48:16.214Z,0.00
2019-01-14T00:49:16.205Z,0.00
2019-01-14T00:50:16.193Z,0.00
2019-01-14T00:51:16.182Z,0.00
2019-01-14T00:52:16.176Z,0.00
2019-01-14T00:53:16.160Z,0.00
2019-01-14T00:54:16.148Z,0.00
2019-01-14T00:55:16.137Z,0.00
2019-01-14T00:56:16.125Z,0.00
2019-01-14T00:57:16.116Z,0.00
2019-01-14T00:58:16.103Z,0.00
2019-01-14T00:59:16.092Z,0.00
2019-01-14T01:00:16.083Z,0.00
2019-01-14T01:01:16.072Z,0.00
2019-01-14T01:02:16.060Z,0.00
2019-01-14T01:03:16.047Z,0.00
2019-01-14T01:04:16.039Z,0.00
2019-01-14T01:05:16.029Z,0.00
2019-01-14T01:06:16.021Z,0.00
2019-01-14T01:07:16.005Z,0.00
2019-01-14T01:08:15.994Z,0.00
2019-01-14T01:09:15.981Z,0.00
2019-01-14T01:10:15.971Z,0.00
2019-01-14T01:11:34.118Z,0.00
2019-01-14T01:12:57.500Z,0.00
2019-01-14T01:13:57.491Z,0.00
2019-01-14T01:15:39.534Z,0.00
2019-01-14T01:16:39.520Z,0.00
2019-01-14T01:17:39.515Z,0.00
2019-01-14T01:18:39.500Z,0.00
2019-01-14T01:19:39.488Z,0.00
2019-01-14T01:20:39.476Z,0.00
2019-01-14T01:21:39.467Z,0.00
2019-01-14T01:22:39.456Z,0.00
2019-01-14T01:23:39.444Z,0.00
2019-01-14T01:24:39.435Z,0.00
2019-01-14T01:25:39.436Z,0.00
2019-01-14T01:26:39.418Z,0.00
2019-01-14T01:27:39.409Z,0.00
2019-01-14T01:28:39.397Z,0.00
2019-01-14T01:29:39.379Z,0.00
2019-01-14T01:30:39.418Z,0.00
2019-01-14T01:31:39.360Z,0.00
2019-01-14T01:32:39.344Z,0.00
2019-01-14T01:33:39.336Z,0.00
2019-01-14T01:34:39.323Z,0.00
2019-01-14T01:35:39.311Z,0.00
2019-01-14T01:36:39.301Z,0.00
2019-01-14T01:37:39.291Z,0.00
2019-01-14T01:38:39.277Z,0.00
2019-01-14T01:39:39.275Z,0.00
2019-01-14T01:40:39.287Z,0.00
2019-01-14T01:41:39.246Z,0.00
2019-01-14T01:42:39.236Z,0.00
2019-01-14T01:43:39.221Z,0.00
2019-01-14T01:44:39.213Z,0.00
2019-01-14T01:45:39.198Z,0.00
2019-01-14T01:46:39.189Z,0.00
2019-01-14T01:47:39.178Z,0.00
2019-01-14T01:48:39.166Z,0.00
2019-01-14T01:49:39.157Z,0.00
2019-01-14T01:50:39.145Z,0.00
2019-01-14T01:51:39.134Z,0.00
2019-01-14T01:52:39.122Z,0.00
2019-01-14T01:53:39.112Z,0.00
2019-01-14T01:54:57.234Z,0.00
2019-01-14T01:56:20.648Z,0.00
2019-01-14T01:57:20.640Z,0.00
2019-01-14T01:59:22.759Z,0.00
2019-01-14T02:00:02.661Z,0.00
2019-01-14T02:01:22.271Z,0.00
2019-01-14T02:02:44.695Z,0.00
2019-01-14T02:03:44.669Z,0.00
2019-01-14T02:04:44.655Z,0.00
2019-01-14T02:05:44.647Z,0.00
2019-01-14T02:06:44.660Z,0.00
2019-01-14T02:07:44.624Z,0.00
2019-01-14T02:08:44.616Z,0.00
2019-01-14T02:09:44.601Z,0.00
2019-01-14T02:10:44.601Z,0.00
2019-01-14T02:11:44.577Z,0.00
2019-01-14T02:12:44.577Z,0.00
2019-01-14T02:13:44.557Z,0.00
2019-01-14T02:14:44.552Z,0.00
2019-01-14T02:15:44.535Z,0.00
2019-01-14T02:16:44.523Z,0.00
2019-01-14T02:17:44.513Z,0.00
2019-01-14T02:18:44.500Z,0.00
2019-01-14T02:19:44.490Z,0.00
2019-01-14T02:20:44.480Z,0.00
2019-01-14T02:21:44.470Z,0.00
2019-01-14T02:22:44.459Z,0.00
2019-01-14T02:23:44.446Z,0.00
2019-01-14T02:24:44.435Z,0.00
2019-01-14T02:25:44.425Z,0.00
2019-01-14T02:26:44.415Z,0.00
2019-01-14T02:27:44.405Z,0.00
2019-01-14T02:28:44.391Z,0.00
2019-01-14T02:29:44.380Z,0.00
2019-01-14T02:30:44.372Z,0.00
2019-01-14T02:31:44.359Z,0.00
2019-01-14T02:32:44.374Z,0.00
2019-01-14T02:33:44.338Z,0.00
2019-01-14T02:34:44.327Z,0.00
2019-01-14T02:35:44.343Z,0.00
2019-01-14T02:36:48.528Z,0.00
2019-01-14T02:37:44.292Z,0.00
2019-01-14T02:38:44.282Z,0.00
2019-01-14T02:39:44.275Z,0.00
2019-01-14T02:40:44.259Z,0.00
2019-01-14T02:41:44.250Z,0.00
2019-01-14T02:42:44.238Z,0.00
2019-01-14T02:43:44.231Z,0.00
2019-01-14T02:44:44.225Z,0.00
2019-01-14T02:45:44.205Z,0.00
2019-01-14T02:46:44.193Z,0.00
2019-01-14T02:47:44.187Z,0.00
2019-01-14T02:48:44.172Z,0.00
2019-01-14T02:49:44.161Z,0.00
2019-01-14T02:50:44.151Z,0.00
2019-01-14T02:51:44.140Z,0.00
2019-01-14T02:52:44.129Z,0.00
2019-01-14T02:53:44.121Z,0.00
2019-01-14T02:54:44.109Z,0.00
2019-01-14T02:55:44.101Z,0.00
2019-01-14T02:56:44.086Z,0.00
2019-01-14T02:57:44.078Z,0.00
2019-01-14T02:58:44.065Z,0.00
2019-01-14T02:59:44.052Z,0.00
2019-01-14T03:00:44.042Z,0.00
2019-01-14T03:02:02.703Z,0.00
2019-01-14T03:02:44.017Z,0.00
2019-01-14T03:03:44.009Z,0.00
2019-01-14T03:04:43.997Z,0.00
2019-01-14T03:05:44.006Z,0.00
2019-01-14T03:06:43.975Z,0.00
2019-01-14T03:07:43.963Z,0.00
2019-01-14T03:08:43.952Z,0.00
2019-01-14T03:09:43.943Z,0.00
2019-01-14T03:10:43.938Z,0.00
2019-01-14T03:11:43.931Z,0.00
2019-01-14T03:12:43.910Z,0.00
2019-01-14T03:13:43.906Z,0.00
2019-01-14T03:14:43.887Z,0.00
2019-01-14T03:15:43.875Z,0.00
2019-01-14T03:16:43.864Z,0.00
2019-01-14T03:17:43.900Z,0.00
2019-01-14T03:18:43.843Z,0.00
2019-01-14T03:19:43.834Z,0.00
2019-01-14T03:20:43.824Z,0.00
2019-01-14T03:21:43.809Z,0.00
2019-01-14T03:22:43.799Z,0.00
2019-01-14T03:23:43.789Z,0.00
2019-01-14T03:24:43.775Z,0.00
2019-01-14T03:25:43.764Z,0.00
2019-01-14T03:26:43.753Z,0.00
2019-01-14T03:27:43.745Z,0.00
2019-01-14T03:28:43.734Z,0.00
2019-01-14T03:29:43.721Z,0.00
2019-01-14T03:30:43.711Z,0.00
2019-01-14T03:31:43.700Z,0.00
2019-01-14T03:32:43.694Z,0.00
2019-01-14T03:33:43.676Z,0.00
2019-01-14T03:34:43.671Z,0.00
2019-01-14T03:35:43.656Z,0.00
2019-01-14T03:36:43.643Z,0.00
2019-01-14T03:37:43.634Z,0.00
2019-01-14T03:38:43.620Z,0.00
2019-01-14T03:39:43.624Z,0.00
2019-01-14T03:40:43.602Z,0.00
2019-01-14T03:41:43.588Z,0.00
2019-01-14T03:42:43.577Z,0.00
2019-01-14T03:43:43.569Z,0.00
2019-01-14T03:44:43.555Z,0.00
2019-01-14T03:45:43.545Z,0.00
2019-01-14T03:46:43.536Z,0.00
2019-01-14T03:47:43.524Z,0.00
2019-01-14T03:48:43.512Z,0.00
2019-01-14T03:49:43.501Z,0.00
2019-01-14T03:50:43.490Z,0.00
2019-01-14T03:51:43.485Z,0.00
2019-01-14T03:52:43.482Z,0.00
2019-01-14T03:53:43.459Z,0.00
2019-01-14T03:54:43.446Z,0.00
2019-01-14T03:55:43.436Z,0.00
2019-01-14T03:56:43.425Z,0.00
2019-01-14T03:57:43.415Z,0.00
2019-01-14T03:58:43.403Z,0.00
2019-01-14T03:59:43.390Z,0.00
2019-01-14T04:00:43.397Z,0.00
2019-01-14T04:01:43.372Z,0.00
2019-01-14T04:02:43.374Z,0.00
2019-01-14T04:03:43.348Z,0.00
2019-01-14T04:05:02.968Z,0.00
2019-01-14T04:06:25.383Z,0.00
2019-01-14T04:07:46.009Z,0.00
2019-01-14T04:09:07.111Z,0.00
2019-01-14T04:10:07.086Z,0.00
2019-01-14T04:11:07.075Z,0.00
2019-01-14T04:12:07.066Z,0.00
2019-01-14T04:13:07.055Z,0.00
2019-01-14T04:14:07.042Z,0.00
2019-01-14T04:15:07.033Z,0.00
2019-01-14T04:16:07.021Z,0.00
2019-01-14T04:17:07.011Z,0.00
2019-01-14T04:18:07.000Z,0.00
2019-01-14T04:19:06.988Z,0.00
2019-01-14T04:20:06.977Z,0.00
2019-01-14T04:21:06.967Z,0.00
2019-01-14T04:22:06.957Z,0.00
2019-01-14T04:23:06.945Z,0.00
2019-01-14T04:24:06.934Z,0.00
2019-01-14T04:25:06.980Z,0.00
2019-01-14T04:26:06.912Z,0.00
2019-01-14T04:27:06.902Z,0.00
2019-01-14T04:28:06.890Z,0.00
2019-01-14T04:29:06.881Z,0.00
2019-01-14T04:30:06.869Z,0.00
2019-01-14T04:31:06.856Z,0.00
2019-01-14T04:32:06.848Z,0.00
2019-01-14T04:33:06.835Z,0.00
2019-01-14T04:34:06.826Z,0.00
2019-01-14T04:35:06.825Z,0.00
2019-01-14T04:36:06.802Z,0.00
2019-01-14T04:37:06.793Z,0.00
2019-01-14T04:38:06.780Z,0.00
2019-01-14T04:39:06.773Z,0.00
2019-01-14T04:40:08.488Z,0.00
2019-01-14T04:41:06.746Z,0.00
2019-01-14T04:42:06.737Z,0.00
2019-01-14T04:43:06.831Z,0.00
2019-01-14T04:44:06.720Z,0.00
2019-01-14T04:45:06.705Z,0.00
2019-01-14T04:46:06.692Z,0.00
2019-01-14T04:47:06.682Z,0.00
2019-01-14T04:48:06.672Z,0.00
2019-01-14T04:49:06.660Z,0.00
2019-01-14T04:50:06.657Z,0.00
2019-01-14T04:51:06.636Z,0.00
2019-01-14T04:52:06.633Z,0.00
2019-01-14T04:53:06.615Z,0.00
2019-01-14T04:54:06.611Z,0.00
2019-01-14T04:55:06.595Z,0.00
2019-01-14T04:56:06.587Z,0.00
2019-01-14T04:57:06.571Z,0.00
2019-01-14T04:58:06.567Z,0.00
2019-01-14T04:59:06.548Z,0.00
2019-01-14T05:00:06.541Z,0.00
2019-01-14T05:01:06.529Z,0.00
2019-01-14T05:02:06.517Z,0.00
2019-01-14T05:03:06.504Z,0.00
2019-01-14T05:04:06.496Z,0.00
2019-01-14T05:05:06.485Z,0.00
2019-01-14T05:06:06.475Z,0.00
2019-01-14T05:07:06.460Z,0.00
2019-01-14T05:08:06.469Z,0.00
2019-01-14T05:09:06.442Z,0.00
2019-01-14T05:10:06.427Z,0.00
2019-01-14T05:11:06.415Z,0.00
2019-01-14T05:12:06.407Z,0.00
2019-01-14T05:13:06.421Z,0.00
2019-01-14T05:14:06.387Z,0.00
2019-01-14T05:15:06.375Z,0.00
2019-01-14T05:16:06.361Z,0.00
2019-01-14T05:17:06.353Z,0.00
2019-01-14T05:18:06.340Z,0.00
2019-01-14T05:19:06.329Z,0.00
2019-01-14T05:20:06.327Z,0.00
2019-01-14T05:21:06.322Z,0.00
2019-01-14T05:22:06.298Z,0.00
2019-01-14T05:23:06.289Z,0.00
2019-01-14T05:24:06.296Z,0.00
2019-01-14T05:25:06.265Z,0.00
2019-01-14T05:26:06.256Z,0.00
2019-01-14T05:27:06.243Z,0.00
2019-01-14T05:28:06.237Z,0.00
2019-01-14T05:29:06.222Z,0.00
2019-01-14T05:30:06.209Z,0.00
2019-01-14T05:31:06.200Z,0.00
2019-01-14T05:32:06.187Z,0.00
2019-01-14T05:33:06.254Z,0.00
2019-01-14T05:34:06.195Z,0.00
2019-01-14T05:35:06.154Z,0.00
2019-01-14T05:36:06.166Z,0.00
2019-01-14T05:37:06.133Z,0.00
2019-01-14T05:38:06.134Z,0.00
2019-01-14T05:39:06.109Z,0.00
2019-01-14T05:40:06.100Z,0.00
2019-01-14T05:41:06.089Z,0.00
2019-01-14T05:42:06.094Z,0.00
2019-01-14T05:43:06.069Z,0.00
2019-01-14T05:44:06.055Z,0.00
2019-01-14T05:45:06.043Z,0.00
2019-01-14T05:46:06.035Z,0.00
2019-01-14T05:47:06.027Z,0.00
2019-01-14T05:48:06.025Z,0.00
2019-01-14T05:49:06.000Z,0.00
2019-01-14T05:50:05.993Z,0.00
2019-01-14T05:51:05.979Z,0.00
2019-01-14T05:52:05.969Z,0.00
2019-01-14T05:53:05.961Z,0.00
2019-01-14T05:54:05.946Z,0.00
2019-01-14T05:55:05.937Z,0.00
2019-01-14T05:56:05.938Z,0.00
2019-01-14T05:57:05.916Z,0.00
2019-01-14T05:58:05.905Z,0.00
2019-01-14T05:59:05.896Z,0.00
2019-01-14T06:00:05.881Z,0.00
2019-01-14T06:01:05.887Z,0.00
2019-01-14T06:02:05.859Z,0.00
2019-01-14T06:03:05.848Z,0.00
2019-01-14T06:04:05.835Z,0.00
2019-01-14T06:05:05.827Z,0.00
2019-01-14T06:06:05.833Z,0.00
2019-01-14T06:07:05.803Z,0.00
2019-01-14T06:08:05.817Z,0.00
2019-01-14T06:09:05.783Z,0.00
2019-01-14T06:10:05.771Z,0.00
2019-01-14T06:11:05.765Z,0.00
2019-01-14T06:12:05.749Z,0.00
2019-01-14T06:13:05.749Z,0.00
2019-01-14T06:14:05.726Z,0.00
2019-01-14T06:15:25.995Z,0.00
2019-01-14T06:16:47.755Z,0.00
2019-01-14T06:18:08.325Z,0.00
2019-01-14T06:19:29.287Z,0.00
2019-01-14T06:20:29.316Z,0.00
2019-01-14T06:21:59.746Z,0.00
2019-01-14T06:22:59.733Z,0.00
2019-01-14T06:24:41.771Z,0.00
2019-01-14T06:25:41.761Z,0.00
2019-01-14T06:26:41.750Z,0.00
2019-01-14T06:27:41.739Z,0.00
2019-01-14T06:28:41.731Z,0.00
2019-01-14T06:29:41.717Z,0.00
2019-01-14T06:30:41.707Z,0.00
2019-01-14T06:31:41.711Z,0.00
2019-01-14T06:32:41.683Z,0.00
2019-01-14T06:33:41.673Z,0.00
2019-01-14T06:34:41.664Z,0.00
2019-01-14T06:35:41.662Z,0.00
2019-01-14T06:36:41.645Z,0.00
2019-01-14T06:37:41.630Z,0.00
2019-01-14T06:38:41.622Z,0.00
2019-01-14T06:39:41.608Z,0.00
2019-01-14T06:40:41.600Z,0.00
2019-01-14T06:41:41.584Z,0.00
2019-01-14T06:42:41.574Z,0.00
2019-01-14T06:43:41.566Z,0.00
2019-01-14T06:44:41.552Z,4.00
2019-01-14T06:45:41.548Z,4.00
2019-01-14T06:46:41.530Z,4.00
2019-01-14T06:47:41.520Z,0.00
2019-01-14T06:48:41.508Z,4.00
2019-01-14T06:49:41.498Z,0.00
2019-01-14T06:50:41.487Z,4.00
2019-01-14T06:51:41.478Z,4.00
2019-01-14T06:52:41.519Z,0.00
2019-01-14T06:53:41.452Z,0.00
2019-01-14T06:54:41.445Z,0.00
2019-01-14T06:55:41.438Z,4.00
2019-01-14T06:56:41.420Z,4.00
2019-01-14T06:57:41.411Z,12.00
2019-01-14T06:58:41.417Z,24.00
2019-01-14T06:59:41.397Z,40.00
2019-01-14T07:00:41.381Z,56.00
2019-01-14T07:01:41.367Z,72.00
2019-01-14T07:02:41.360Z,76.00
2019-01-14T07:03:41.343Z,84.00
2019-01-14T07:04:41.336Z,92.00
2019-01-14T07:05:41.322Z,100.00
2019-01-14T07:06:41.311Z,104.00
2019-01-14T07:07:41.301Z,112.00
2019-01-14T07:08:41.289Z,120.00
2019-01-14T07:09:41.279Z,124.00
2019-01-14T07:10:41.265Z,136.00
2019-01-14T07:12:01.852Z,140.00
2019-01-14T07:13:22.795Z,156.00
2019-01-14T07:14:22.785Z,164.00
2019-01-14T07:16:04.837Z,176.00
2019-01-14T07:17:04.806Z,188.00
2019-01-14T07:18:04.806Z,200.00
2019-01-14T07:19:04.785Z,216.00
2019-01-14T07:20:04.777Z,236.00
2019-01-14T07:21:04.764Z,260.00
2019-01-14T07:22:04.752Z,288.00
2019-01-14T07:23:04.741Z,312.00
2019-01-14T07:24:04.730Z,332.00
2019-01-14T07:25:04.719Z,344.00
2019-01-14T07:26:04.709Z,364.00
2019-01-14T07:27:04.697Z,388.00
2019-01-14T07:28:04.690Z,412.00
2019-01-14T07:29:06.361Z,448.00
2019-01-14T07:30:04.666Z,532.00
2019-01-14T07:31:04.654Z,532.00
2019-01-14T07:32:04.650Z,428.00
2019-01-14T07:33:04.630Z,576.00
2019-01-14T07:34:04.618Z,436.00
2019-01-14T07:35:04.608Z,520.00
2019-01-14T07:36:04.595Z,448.00
2019-01-14T07:37:04.585Z,416.00
2019-01-14T07:38:06.941Z,492.00
2019-01-14T07:39:04.564Z,552.00
2019-01-14T07:40:05.419Z,568.00
2019-01-14T07:41:04.546Z,568.00
2019-01-14T07:42:04.535Z,604.00
2019-01-14T07:43:04.564Z,608.00
2019-01-14T07:44:04.512Z,544.00
2019-01-14T07:45:04.495Z,560.00
2019-01-14T07:46:04.485Z,568.00
2019-01-14T07:47:04.475Z,580.00
2019-01-14T07:48:04.468Z,652.00
2019-01-14T07:49:04.451Z,700.00
2019-01-14T07:50:04.440Z,596.00
2019-01-14T07:51:04.429Z,536.00
2019-01-14T07:52:04.418Z,604.00
2019-01-14T07:53:04.410Z,692.00
2019-01-14T07:54:04.396Z,764.00
2019-01-14T07:55:04.384Z,856.00
2019-01-14T07:56:04.375Z,976.00
2019-01-14T07:57:04.363Z,1104.00
2019-01-14T07:58:04.353Z,1172.00
2019-01-14T07:59:04.344Z,1196.00
2019-01-14T08:00:04.328Z,1208.00
2019-01-14T08:01:04.326Z,1184.00
2019-01-14T08:02:04.307Z,1112.00
2019-01-14T08:03:04.296Z,1136.00
2019-01-14T08:04:04.286Z,984.00
2019-01-14T08:05:04.273Z,996.00
2019-01-14T08:06:04.263Z,1004.00
2019-01-14T08:07:04.249Z,1052.00
2019-01-14T08:08:04.247Z,976.00
2019-01-14T08:09:04.228Z,976.00
2019-01-14T08:10:04.217Z,824.00
2019-01-14T08:11:04.213Z,708.00
2019-01-14T08:12:04.195Z,896.00
2019-01-14T08:13:04.183Z,1092.00
2019-01-14T08:14:04.173Z,1244.00
2019-01-14T08:15:04.164Z,1372.00
2019-01-14T08:16:04.154Z,1392.00
2019-01-14T08:17:04.144Z,1472.00
2019-01-14T08:18:04.127Z,1356.00
2019-01-14T08:19:04.117Z,1464.00
2019-01-14T08:20:04.106Z,1392.00
2019-01-14T08:21:04.099Z,1452.00
2019-01-14T08:22:04.083Z,1580.00
2019-01-14T08:23:04.074Z,1544.00
2019-01-14T08:24:04.064Z,1872.00
2019-01-14T08:25:04.053Z,2052.00
2019-01-14T08:26:04.039Z,1852.00
2019-01-14T08:27:04.026Z,1908.00
2019-01-14T08:28:04.017Z,2120.00
2019-01-14T08:29:04.004Z,2104.00
2019-01-14T08:30:03.993Z,2012.00
2019-01-14T08:31:03.998Z,2012.00
2019-01-14T08:32:03.975Z,1888.00
2019-01-14T08:33:03.962Z,1852.00
2019-01-14T08:34:03.953Z,1772.00
2019-01-14T08:35:03.937Z,1980.00
2019-01-14T08:36:03.927Z,2036.00
2019-01-14T08:37:03.917Z,1556.00
2019-01-14T08:38:03.904Z,1632.00
2019-01-14T08:39:03.897Z,1620.00
2019-01-14T08:40:03.881Z,1672.00
2019-01-14T08:41:03.875Z,1800.00
2019-01-14T08:42:03.860Z,1652.00
2019-01-14T08:43:03.858Z,1916.00
2019-01-14T08:44:03.839Z,1708.00
2019-01-14T08:45:03.827Z,1608.00
2019-01-14T08:46:03.815Z,1592.00
2019-01-14T08:47:03.816Z,1548.00
2019-01-14T08:48:03.793Z,1532.00
2019-01-14T08:49:03.797Z,1516.00
2019-01-14T08:50:03.774Z,1500.00
2019-01-14T08:51:03.760Z,1492.00
2019-01-14T08:52:03.755Z,1452.00
2019-01-14T08:53:03.741Z,1408.00
2019-01-14T08:54:03.727Z,1384.00
2019-01-14T08:55:03.717Z,1368.00
2019-01-14T08:56:03.705Z,1392.00
2019-01-14T08:57:03.694Z,1356.00
2019-01-14T08:58:03.687Z,1444.00
2019-01-14T08:59:03.674Z,1404.00
2019-01-14T09:00:03.661Z,1204.00
2019-01-14T09:01:03.652Z,1116.00
2019-01-14T09:02:03.637Z,1088.00
2019-01-14T09:03:03.628Z,1128.00
2019-01-14T09:04:03.615Z,1148.00
2019-01-14T09:05:03.612Z,1164.00
2019-01-14T09:06:03.595Z,1168.00
2019-01-14T09:07:03.587Z,1188.00
2019-01-14T09:08:03.577Z,1268.00
2019-01-14T09:09:03.562Z,1300.00
2019-01-14T09:10:03.550Z,1372.00
2019-01-14T09:11:03.537Z,1416.00
2019-01-14T09:12:03.527Z,1524.00
2019-01-14T09:13:03.518Z,1508.00
2019-01-14T09:14:03.505Z,1524.00
2019-01-14T09:15:03.494Z,1536.00
2019-01-14T09:16:03.485Z,1568.00
2019-01-14T09:17:03.474Z,1568.00
2019-01-14T09:18:03.464Z,1580.00
2019-01-14T09:19:03.452Z,1592.00
2019-01-14T09:20:03.450Z,1584.00
2019-01-14T09:21:03.435Z,1588.00
2019-01-14T09:22:03.429Z,1604.00
2019-01-14T09:23:03.408Z,1596.00
2019-01-14T09:24:03.394Z,1604.00
2019-01-14T09:25:03.383Z,1568.00
2019-01-14T09:26:03.371Z,1544.00
2019-01-14T09:27:03.364Z,1568.00
2019-01-14T09:28:03.350Z,1708.00
2019-01-14T09:29:03.339Z,1684.00
2019-01-14T09:30:03.327Z,1604.00
2019-01-14T09:31:03.315Z,1620.00
2019-01-14T09:32:03.304Z,1588.00
2019-01-14T09:33:03.293Z,1572.00
2019-01-14T09:34:03.283Z,1592.00
2019-01-14T09:35:03.272Z,1612.00
2019-01-14T09:36:03.262Z,1732.00
2019-01-14T09:37:03.250Z,1680.00
2019-01-14T09:38:03.239Z,1684.00
2019-01-14T09:39:03.226Z,1724.00
2019-01-14T09:40:03.220Z,1812.00
2019-01-14T09:41:03.999Z,1884.00
2019-01-14T09:42:03.201Z,1652.00
2019-01-14T09:43:03.181Z,1676.00
2019-01-14T09:44:03.172Z,1692.00
2019-01-14T09:45:03.160Z,1676.00
2019-01-14T09:46:03.149Z,1732.00
2019-01-14T09:47:03.145Z,1744.00
2019-01-14T09:48:03.126Z,1684.00
2019-01-14T09:49:03.115Z,1732.00
2019-01-14T09:50:03.108Z,1800.00
2019-01-14T09:51:03.097Z,1824.00
2019-01-14T09:52:03.082Z,1972.00
2019-01-14T09:53:03.074Z,1852.00
2019-01-14T09:54:03.060Z,2468.00
2019-01-14T09:55:05.705Z,4300.00
2019-01-14T09:56:03.039Z,5404.00
2019-01-14T09:57:03.025Z,5572.00
2019-01-14T09:58:03.017Z,5284.00
2019-01-14T09:59:03.005Z,5052.00
2019-01-14T10:00:02.992Z,4580.00
2019-01-14T10:01:02.982Z,4640.00
2019-01-14T10:02:02.972Z,4672.00
2019-01-14T10:03:02.960Z,4484.00
2019-01-14T10:04:02.950Z,4676.00
2019-01-14T10:05:02.937Z,4796.00
2019-01-14T10:06:02.925Z,4824.00
2019-01-14T10:07:02.914Z,4528.00
2019-01-14T10:08:02.981Z,4092.00
2019-01-14T10:09:03.901Z,3528.00
2019-01-14T10:10:02.884Z,3860.00
2019-01-14T10:11:02.871Z,3544.00
2019-01-14T10:12:02.862Z,3320.00
2019-01-14T10:13:02.867Z,3208.00
2019-01-14T10:14:02.837Z,3608.00
2019-01-14T10:15:02.826Z,3280.00
2019-01-14T10:16:02.817Z,2796.00
2019-01-14T10:17:02.805Z,3016.00
2019-01-14T10:18:02.795Z,2920.00
2019-01-14T10:19:02.783Z,3116.00
2019-01-14T10:20:02.772Z,3356.00
2019-01-14T10:21:02.761Z,3892.00
2019-01-14T10:22:02.749Z,4520.00
2019-01-14T10:23:02.738Z,4332.00
2019-01-14T10:24:02.728Z,3732.00
2019-01-14T10:25:02.717Z,3300.00
2019-01-14T10:26:02.703Z,2584.00
2019-01-14T10:27:02.694Z,2188.00
2019-01-14T10:28:02.683Z,2160.00
2019-01-14T10:29:02.671Z,2008.00
2019-01-14T10:30:02.662Z,1872.00
2019-01-14T10:31:02.649Z,2684.00
2019-01-14T10:32:02.638Z,2720.00
2019-01-14T10:33:02.628Z,2524.00
2019-01-14T10:34:02.620Z,2260.00
2019-01-14T10:35:02.607Z,2108.00
2019-01-14T10:36:02.593Z,3152.00
2019-01-14T10:37:02.582Z,4548.00
2019-01-14T10:38:02.571Z,3668.00
2019-01-14T10:39:02.559Z,3112.00
2019-01-14T10:40:02.549Z,3020.00
2019-01-14T10:41:02.538Z,2596.00
2019-01-14T10:42:05.042Z,2152.00
2019-01-14T10:43:02.516Z,1912.00
2019-01-14T10:44:02.506Z,2580.00
2019-01-14T10:45:02.497Z,2700.00
2019-01-14T10:46:02.483Z,2728.00
2019-01-14T10:47:02.473Z,3708.00
2019-01-14T10:48:02.460Z,4836.00
2019-01-14T10:49:06.618Z,4540.00
2019-01-14T10:50:02.441Z,4936.00
2019-01-14T10:51:02.428Z,3256.00
2019-01-14T10:52:02.420Z,1840.00
2019-01-14T10:53:02.410Z,1600.00
2019-01-14T10:54:02.398Z,1364.00
2019-01-14T10:55:02.384Z,1420.00
2019-01-14T10:56:02.372Z,1468.00
2019-01-14T10:57:02.364Z,1436.00
2019-01-14T10:58:02.349Z,1776.00
2019-01-14T10:59:02.339Z,2416.00
2019-01-14T11:00:02.328Z,1692.00
2019-01-14T11:01:02.316Z,1324.00
2019-01-14T11:02:02.304Z,1576.00
2019-01-14T11:03:02.294Z,2988.00
2019-01-14T11:04:02.283Z,3248.00
2019-01-14T11:05:02.273Z,4576.00
2019-01-14T11:06:02.260Z,3732.00
2019-01-14T11:07:02.251Z,3160.00
2019-01-14T11:08:02.241Z,4080.00
2019-01-14T11:09:06.044Z,2972.00
2019-01-14T11:10:02.217Z,2692.00
2019-01-14T11:11:02.207Z,2460.00
2019-01-14T11:12:02.194Z,2792.00
2019-01-14T11:13:02.183Z,3840.00
2019-01-14T11:14:02.171Z,4756.00
2019-01-14T11:15:03.089Z,4036.00
2019-01-14T11:16:02.148Z,3640.00
2019-01-14T11:17:02.138Z,4232.00
2019-01-14T11:18:02.128Z,5316.00
2019-01-14T11:19:02.116Z,3864.00
2019-01-14T11:20:02.107Z,1924.00
2019-01-14T11:21:02.094Z,1636.00
2019-01-14T11:22:02.083Z,2316.00
2019-01-14T11:23:02.072Z,2584.00
2019-01-14T11:24:02.062Z,2232.00
2019-01-14T11:25:02.535Z,1672.00
2019-01-14T11:26:02.037Z,1816.00
2019-01-14T11:27:02.028Z,3476.00
2019-01-14T11:28:02.022Z,3944.00
2019-01-14T11:29:02.006Z,3548.00
2019-01-14T11:30:01.997Z,4708.00
2019-01-14T11:31:01.984Z,3472.00
2019-01-14T11:32:01.974Z,3568.00
2019-01-14T11:33:01.964Z,3720.00
2019-01-14T11:34:01.949Z,2336.00
2019-01-14T11:35:01.937Z,1288.00
2019-01-14T11:36:01.926Z,1416.00
2019-01-14T11:37:01.918Z,2492.00
2019-01-14T11:38:01.910Z,2396.00
2019-01-14T11:39:05.163Z,3116.00
2019-01-14T11:40:01.882Z,3368.00
2019-01-14T11:41:01.871Z,4112.00
2019-01-14T11:42:01.860Z,3844.00
2019-01-14T11:43:01.852Z,3736.00
2019-01-14T11:44:01.840Z,3504.00
2019-01-14T11:45:01.829Z,3640.00
2019-01-14T11:46:01.816Z,2792.00
2019-01-14T11:47:01.807Z,2148.00
2019-01-14T11:48:01.793Z,1628.00
2019-01-14T11:49:01.788Z,2540.00
2019-01-14T11:50:01.777Z,3024.00
2019-01-14T11:51:01.760Z,3280.00
2019-01-14T11:52:01.750Z,3416.00
2019-01-14T11:53:01.744Z,3128.00
2019-01-14T11:54:01.727Z,3112.00
2019-01-14T11:55:01.717Z,3004.00
2019-01-14T11:56:01.706Z,2872.00
2019-01-14T11:57:01.695Z,2436.00
2019-01-14T11:58:01.686Z,2620.00
2019-01-14T11:59:01.672Z,2452.00
2019-01-14T12:00:01.661Z,2024.00
2019-01-14T12:01:01.651Z,1592.00
2019-01-14T12:02:01.639Z,1920.00
2019-01-14T12:03:01.630Z,2168.00
2019-01-14T12:04:01.617Z,2264.00
2019-01-14T12:05:01.609Z,2148.00
2019-01-14T12:06:01.595Z,2192.00
2019-01-14T12:07:01.584Z,2448.00
2019-01-14T12:08:01.573Z,2528.00
2019-01-14T12:09:01.561Z,2584.00
2019-01-14T12:10:01.550Z,2592.00
2019-01-14T12:11:01.538Z,2536.00
2019-01-14T12:12:01.528Z,2300.00
2019-01-14T12:13:01.517Z,2488.00
2019-01-14T12:14:01.506Z,2540.00
2019-01-14T12:15:01.493Z,2320.00
2019-01-14T12:16:01.496Z,2412.00
2019-01-14T12:17:01.472Z,2600.00
2019-01-14T12:18:01.461Z,2628.00
2019-01-14T12:19:01.452Z,2748.00
2019-01-14T12:20:01.437Z,2736.00
2019-01-14T12:21:01.428Z,2724.00
2019-01-14T12:22:01.421Z,2360.00
2019-01-14T12:23:01.404Z,2248.00
2019-01-14T12:24:01.457Z,2364.00
2019-01-14T12:25:01.384Z,2612.00
2019-01-14T12:26:01.377Z,2904.00
2019-01-14T12:27:01.361Z,3340.00
2019-01-14T12:28:01.350Z,3312.00
2019-01-14T12:29:01.339Z,3172.00
2019-01-14T12:30:01.330Z,3124.00
2019-01-14T12:31:01.318Z,2836.00
2019-01-14T12:32:01.308Z,2508.00
2019-01-14T12:33:01.297Z,2264.00
2019-01-14T12:34:01.281Z,2240.00
2019-01-14T12:35:01.276Z,2100.00
2019-01-14T12:36:01.264Z,2008.00
2019-01-14T12:37:01.251Z,2432.00
2019-01-14T12:38:01.239Z,2408.00
2019-01-14T12:39:01.228Z,2324.00
2019-01-14T12:40:01.215Z,2340.00
2019-01-14T12:41:01.205Z,2184.00
2019-01-14T12:42:01.197Z,2092.00
2019-01-14T12:43:01.183Z,1760.00
2019-01-14T12:44:01.170Z,1952.00
2019-01-14T12:45:01.160Z,2512.00
2019-01-14T12:46:01.148Z,1828.00
2019-01-14T12:47:01.137Z,1752.00
2019-01-14T12:48:01.156Z,2036.00
2019-01-14T12:49:01.119Z,1436.00
2019-01-14T12:50:01.176Z,1920.00
2019-01-14T12:51:01.094Z,2236.00
2019-01-14T12:52:01.082Z,2092.00
2019-01-14T12:53:01.072Z,1988.00
2019-01-14T12:54:01.064Z,1544.00
2019-01-14T12:55:01.048Z,1404.00
2019-01-14T12:56:01.039Z,1568.00
2019-01-14T12:57:01.028Z,1408.00
2019-01-14T12:58:01.016Z,1572.00
2019-01-14T12:59:01.005Z,996.00